sensor_id;sensor_type;location;lat;lon;timestamp;P1;durP1;ratioP1;P2;durP2;ratioP2
24873;SDS011;12945;42.648;23.370;2023-05-07T00:00:53;7.35;;;4.88;;
24873;SDS011;12945;42.648;23.370;2023-05-07T00:03:20;7.85;;;5.25;;
24873;SDS011;12945;42.648;23.370;2023-05-07T00:05:45;9.55;;;5.53;;
24873;SDS011;12945;42.648;23.370;2023-05-07T00:08:11;14.75;;;5.68;;
24873;SDS011;12945;42.648;23.370;2023-05-07T00:10:36;10.10;;;5.60;;
24873;SDS011;12945;42.648;23.370;2023-05-07T00:13:02;7.68;;;5.00;;
24873;SDS011;12945;42.648;23.370;2023-05-07T00:15:27;14.20;;;6.03;;
24873;SDS011;12945;42.648;23.370;2023-05-07T00:17:53;11.57;;;5.72;;
24873;SDS011;12945;42.648;23.370;2023-05-07T00:20:18;7.85;;;5.75;;
24873;SDS011;12945;42.648;23.370;2023-05-07T00:22:43;13.15;;;6.10;;
24873;SDS011;12945;42.648;23.370;2023-05-07T00:25:09;12.15;;;5.68;;
24873;SDS011;12945;42.648;23.370;2023-05-07T00:27:35;11.60;;;6.80;;
24873;SDS011;12945;42.648;23.370;2023-05-07T00:30:00;12.38;;;7.40;;
24873;SDS011;12945;42.648;23.370;2023-05-07T00:32:26;15.48;;;7.43;;
24873;SDS011;12945;42.648;23.370;2023-05-07T00:34:51;13.40;;;7.00;;
24873;SDS011;12945;42.648;23.370;2023-05-07T00:37:16;11.43;;;7.07;;
24873;SDS011;12945;42.648;23.370;2023-05-07T00:39:41;10.88;;;8.30;;
24873;SDS011;12945;42.648;23.370;2023-05-07T00:42:07;14.93;;;7.85;;
24873;SDS011;12945;42.648;23.370;2023-05-07T00:44:33;13.77;;;7.70;;
24873;SDS011;12945;42.648;23.370;2023-05-07T00:46:58;18.45;;;8.40;;
24873;SDS011;12945;42.648;23.370;2023-05-07T00:49:27;12.68;;;8.85;;
24873;SDS011;12945;42.648;23.370;2023-05-07T00:51:58;14.38;;;8.35;;
24873;SDS011;12945;42.648;23.370;2023-05-07T00:54:25;15.25;;;8.50;;
24873;SDS011;12945;42.648;23.370;2023-05-07T00:56:50;12.77;;;9.13;;
24873;SDS011;12945;42.648;23.370;2023-05-07T00:59:16;14.23;;;8.55;;
24873;SDS011;12945;42.648;23.370;2023-05-07T01:01:41;13.68;;;8.25;;
24873;SDS011;12945;42.648;23.370;2023-05-07T01:04:07;16.13;;;7.50;;
24873;SDS011;12945;42.648;23.370;2023-05-07T01:06:32;10.52;;;6.50;;
24873;SDS011;12945;42.648;23.370;2023-05-07T01:08:58;9.27;;;6.10;;
24873;SDS011;12945;42.648;23.370;2023-05-07T01:11:23;7.45;;;5.55;;
24873;SDS011;12945;42.648;23.370;2023-05-07T01:13:50;8.27;;;5.30;;
24873;SDS011;12945;42.648;23.370;2023-05-07T01:16:15;7.43;;;5.47;;
24873;SDS011;12945;42.648;23.370;2023-05-07T01:18:41;12.98;;;5.50;;
24873;SDS011;12945;42.648;23.370;2023-05-07T01:21:06;8.65;;;5.90;;
24873;SDS011;12945;42.648;23.370;2023-05-07T01:23:33;11.85;;;6.10;;
24873;SDS011;12945;42.648;23.370;2023-05-07T01:25:59;13.15;;;6.22;;
24873;SDS011;12945;42.648;23.370;2023-05-07T01:28:24;13.02;;;6.72;;
24873;SDS011;12945;42.648;23.370;2023-05-07T01:30:51;15.23;;;6.40;;
24873;SDS011;12945;42.648;23.370;2023-05-07T01:33:18;9.68;;;6.50;;
24873;SDS011;12945;42.648;23.370;2023-05-07T01:35:45;10.25;;;6.45;;
24873;SDS011;12945;42.648;23.370;2023-05-07T01:38:12;9.73;;;6.20;;
24873;SDS011;12945;42.648;23.370;2023-05-07T01:40:38;9.55;;;6.20;;
24873;SDS011;12945;42.648;23.370;2023-05-07T01:43:03;13.48;;;7.82;;
24873;SDS011;12945;42.648;23.370;2023-05-07T01:45:30;13.35;;;7.13;;
24873;SDS011;12945;42.648;23.370;2023-05-07T01:47:56;13.60;;;7.32;;
24873;SDS011;12945;42.648;23.370;2023-05-07T01:50:22;10.85;;;7.80;;
24873;SDS011;12945;42.648;23.370;2023-05-07T01:52:49;13.07;;;8.38;;
24873;SDS011;12945;42.648;23.370;2023-05-07T01:55:15;17.65;;;10.02;;
24873;SDS011;12945;42.648;23.370;2023-05-07T01:57:40;22.83;;;10.07;;
24873;SDS011;12945;42.648;23.370;2023-05-07T02:00:06;16.45;;;9.38;;
24873;SDS011;12945;42.648;23.370;2023-05-07T02:02:32;14.88;;;10.15;;
24873;SDS011;12945;42.648;23.370;2023-05-07T02:04:57;14.27;;;9.75;;
24873;SDS011;12945;42.648;23.370;2023-05-07T02:07:22;11.93;;;9.35;;
24873;SDS011;12945;42.648;23.370;2023-05-07T02:09:47;18.98;;;9.98;;
24873;SDS011;12945;42.648;23.370;2023-05-07T02:12:13;15.00;;;10.10;;
24873;SDS011;12945;42.648;23.370;2023-05-07T02:14:38;14.45;;;10.20;;
24873;SDS011;12945;42.648;23.370;2023-05-07T02:17:03;14.68;;;10.02;;
24873;SDS011;12945;42.648;23.370;2023-05-07T02:19:29;12.93;;;9.38;;
24873;SDS011;12945;42.648;23.370;2023-05-07T02:21:54;15.90;;;9.50;;
24873;SDS011;12945;42.648;23.370;2023-05-07T02:24:20;19.90;;;10.57;;
24873;SDS011;12945;42.648;23.370;2023-05-07T02:26:45;16.80;;;10.48;;
24873;SDS011;12945;42.648;23.370;2023-05-07T02:29:10;14.48;;;10.15;;
24873;SDS011;12945;42.648;23.370;2023-05-07T02:31:36;14.13;;;10.80;;
24873;SDS011;12945;42.648;23.370;2023-05-07T02:34:01;14.60;;;11.10;;
24873;SDS011;12945;42.648;23.370;2023-05-07T02:36:26;18.15;;;10.68;;
24873;SDS011;12945;42.648;23.370;2023-05-07T02:38:52;15.90;;;10.52;;
24873;SDS011;12945;42.648;23.370;2023-05-07T02:41:17;11.98;;;10.15;;
24873;SDS011;12945;42.648;23.370;2023-05-07T02:43:42;15.23;;;10.55;;
24873;SDS011;12945;42.648;23.370;2023-05-07T02:46:08;14.40;;;10.35;;
24873;SDS011;12945;42.648;23.370;2023-05-07T02:48:34;15.38;;;9.85;;
24873;SDS011;12945;42.648;23.370;2023-05-07T02:50:59;17.33;;;10.18;;
24873;SDS011;12945;42.648;23.370;2023-05-07T02:53:25;15.38;;;10.55;;
24873;SDS011;12945;42.648;23.370;2023-05-07T02:55:55;17.80;;;11.45;;
24873;SDS011;12945;42.648;23.370;2023-05-07T02:58:20;20.25;;;12.63;;
24873;SDS011;12945;42.648;23.370;2023-05-07T03:00:46;16.95;;;12.25;;
24873;SDS011;12945;42.648;23.370;2023-05-07T03:03:11;19.35;;;12.80;;
24873;SDS011;12945;42.648;23.370;2023-05-07T03:05:36;16.38;;;12.73;;
24873;SDS011;12945;42.648;23.370;2023-05-07T03:08:02;22.73;;;13.55;;
24873;SDS011;12945;42.648;23.370;2023-05-07T03:10:27;20.17;;;14.15;;
24873;SDS011;12945;42.648;23.370;2023-05-07T03:12:53;22.15;;;13.82;;
24873;SDS011;12945;42.648;23.370;2023-05-07T03:15:18;20.88;;;14.35;;
24873;SDS011;12945;42.648;23.370;2023-05-07T03:17:43;21.58;;;15.27;;
24873;SDS011;12945;42.648;23.370;2023-05-07T03:20:09;27.85;;;15.30;;
24873;SDS011;12945;42.648;23.370;2023-05-07T03:22:34;24.25;;;15.07;;
24873;SDS011;12945;42.648;23.370;2023-05-07T03:25:00;20.83;;;14.82;;
24873;SDS011;12945;42.648;23.370;2023-05-07T03:27:25;24.65;;;15.75;;
24873;SDS011;12945;42.648;23.370;2023-05-07T03:29:50;25.60;;;15.80;;
24873;SDS011;12945;42.648;23.370;2023-05-07T03:32:15;22.67;;;14.93;;
24873;SDS011;12945;42.648;23.370;2023-05-07T03:34:41;31.85;;;16.27;;
24873;SDS011;12945;42.648;23.370;2023-05-07T03:37:06;22.85;;;16.52;;
24873;SDS011;12945;42.648;23.370;2023-05-07T03:39:32;21.95;;;15.55;;
24873;SDS011;12945;42.648;23.370;2023-05-07T03:41:57;28.48;;;16.35;;
24873;SDS011;12945;42.648;23.370;2023-05-07T03:44:23;25.80;;;16.27;;
24873;SDS011;12945;42.648;23.370;2023-05-07T03:46:48;23.65;;;17.50;;
24873;SDS011;12945;42.648;23.370;2023-05-07T03:49:13;25.83;;;17.88;;
24873;SDS011;12945;42.648;23.370;2023-05-07T03:51:38;28.30;;;17.50;;
24873;SDS011;12945;42.648;23.370;2023-05-07T03:54:04;24.30;;;17.10;;
24873;SDS011;12945;42.648;23.370;2023-05-07T03:56:29;24.17;;;16.35;;
24873;SDS011;12945;42.648;23.370;2023-05-07T03:58:56;26.13;;;14.88;;
24873;SDS011;12945;42.648;23.370;2023-05-07T04:01:21;20.85;;;13.10;;
24873;SDS011;12945;42.648;23.370;2023-05-07T04:03:46;17.90;;;12.13;;
24873;SDS011;12945;42.648;23.370;2023-05-07T04:06:11;24.33;;;11.93;;
24873;SDS011;12945;42.648;23.370;2023-05-07T04:08:37;17.98;;;11.48;;
24873;SDS011;12945;42.648;23.370;2023-05-07T04:11:02;18.08;;;10.98;;
24873;SDS011;12945;42.648;23.370;2023-05-07T04:13:27;16.33;;;10.27;;
24873;SDS011;12945;42.648;23.370;2023-05-07T04:15:54;15.55;;;10.02;;
24873;SDS011;12945;42.648;23.370;2023-05-07T04:18:20;16.40;;;10.65;;
24873;SDS011;12945;42.648;23.370;2023-05-07T04:20:46;19.63;;;10.63;;
24873;SDS011;12945;42.648;23.370;2023-05-07T04:23:11;20.60;;;11.30;;
24873;SDS011;12945;42.648;23.370;2023-05-07T04:25:37;15.88;;;10.52;;
24873;SDS011;12945;42.648;23.370;2023-05-07T04:28:02;16.50;;;10.52;;
24873;SDS011;12945;42.648;23.370;2023-05-07T04:30:28;18.02;;;11.63;;
24873;SDS011;12945;42.648;23.370;2023-05-07T04:32:53;18.63;;;11.45;;
24873;SDS011;12945;42.648;23.370;2023-05-07T04:35:18;16.35;;;10.65;;
24873;SDS011;12945;42.648;23.370;2023-05-07T04:37:44;15.82;;;10.30;;
24873;SDS011;12945;42.648;23.370;2023-05-07T04:40:09;20.25;;;10.82;;
24873;SDS011;12945;42.648;23.370;2023-05-07T04:42:35;15.73;;;10.85;;
24873;SDS011;12945;42.648;23.370;2023-05-07T04:45:00;13.95;;;10.18;;
24873;SDS011;12945;42.648;23.370;2023-05-07T04:47:26;17.50;;;11.02;;
24873;SDS011;12945;42.648;23.370;2023-05-07T04:49:51;18.48;;;11.45;;
24873;SDS011;12945;42.648;23.370;2023-05-07T04:52:16;15.25;;;10.65;;
24873;SDS011;12945;42.648;23.370;2023-05-07T04:54:42;20.48;;;11.63;;
24873;SDS011;12945;42.648;23.370;2023-05-07T04:57:07;19.80;;;11.52;;
24873;SDS011;12945;42.648;23.370;2023-05-07T04:59:33;19.58;;;11.02;;
24873;SDS011;12945;42.648;23.370;2023-05-07T05:01:58;17.77;;;11.50;;
24873;SDS011;12945;42.648;23.370;2023-05-07T05:04:23;16.80;;;11.77;;
24873;SDS011;12945;42.648;23.370;2023-05-07T05:06:49;18.58;;;11.00;;
24873;SDS011;12945;42.648;23.370;2023-05-07T05:09:14;16.40;;;11.35;;
24873;SDS011;12945;42.648;23.370;2023-05-07T05:11:40;15.30;;;11.52;;
24873;SDS011;12945;42.648;23.370;2023-05-07T05:14:06;15.52;;;10.68;;
24873;SDS011;12945;42.648;23.370;2023-05-07T05:16:31;16.52;;;10.90;;
24873;SDS011;12945;42.648;23.370;2023-05-07T05:18:56;23.98;;;11.15;;
24873;SDS011;12945;42.648;23.370;2023-05-07T05:21:22;24.42;;;11.60;;
24873;SDS011;12945;42.648;23.370;2023-05-07T05:23:47;14.90;;;11.23;;
24873;SDS011;12945;42.648;23.370;2023-05-07T05:26:13;16.05;;;11.48;;
24873;SDS011;12945;42.648;23.370;2023-05-07T05:28:38;18.77;;;11.68;;
24873;SDS011;12945;42.648;23.370;2023-05-07T05:31:04;19.15;;;11.68;;
24873;SDS011;12945;42.648;23.370;2023-05-07T05:33:29;21.30;;;12.65;;
24873;SDS011;12945;42.648;23.370;2023-05-07T05:35:55;21.10;;;11.88;;
24873;SDS011;12945;42.648;23.370;2023-05-07T05:38:20;20.60;;;12.25;;
24873;SDS011;12945;42.648;23.370;2023-05-07T05:40:46;19.73;;;12.73;;
24873;SDS011;12945;42.648;23.370;2023-05-07T05:43:11;19.80;;;12.70;;
24873;SDS011;12945;42.648;23.370;2023-05-07T05:45:36;16.95;;;12.18;;
24873;SDS011;12945;42.648;23.370;2023-05-07T05:48:01;15.80;;;11.65;;
24873;SDS011;12945;42.648;23.370;2023-05-07T05:50:27;22.55;;;12.82;;
24873;SDS011;12945;42.648;23.370;2023-05-07T05:52:52;19.02;;;12.73;;
24873;SDS011;12945;42.648;23.370;2023-05-07T05:55:17;15.57;;;12.50;;
24873;SDS011;12945;42.648;23.370;2023-05-07T05:57:43;17.77;;;12.02;;
24873;SDS011;12945;42.648;23.370;2023-05-07T06:00:08;17.73;;;12.80;;
24873;SDS011;12945;42.648;23.370;2023-05-07T06:02:34;26.23;;;18.65;;
24873;SDS011;12945;42.648;23.370;2023-05-07T06:04:59;17.33;;;13.10;;
24873;SDS011;12945;42.648;23.370;2023-05-07T06:07:24;16.63;;;12.43;;
24873;SDS011;12945;42.648;23.370;2023-05-07T06:09:50;20.52;;;12.95;;
24873;SDS011;12945;42.648;23.370;2023-05-07T06:12:15;19.55;;;12.27;;
24873;SDS011;12945;42.648;23.370;2023-05-07T06:14:42;17.05;;;12.73;;
24873;SDS011;12945;42.648;23.370;2023-05-07T06:17:07;18.42;;;13.50;;
24873;SDS011;12945;42.648;23.370;2023-05-07T06:19:32;20.45;;;12.93;;
24873;SDS011;12945;42.648;23.370;2023-05-07T06:21:58;22.95;;;13.90;;
24873;SDS011;12945;42.648;23.370;2023-05-07T06:24:24;18.30;;;12.40;;
24873;SDS011;12945;42.648;23.370;2023-05-07T06:26:49;16.70;;;12.18;;
24873;SDS011;12945;42.648;23.370;2023-05-07T06:29:14;18.10;;;11.55;;
24873;SDS011;12945;42.648;23.370;2023-05-07T06:31:40;18.55;;;12.07;;
24873;SDS011;12945;42.648;23.370;2023-05-07T06:34:05;16.35;;;11.32;;
24873;SDS011;12945;42.648;23.370;2023-05-07T06:36:31;19.52;;;11.70;;
24873;SDS011;12945;42.648;23.370;2023-05-07T06:38:56;16.75;;;10.52;;
24873;SDS011;12945;42.648;23.370;2023-05-07T06:41:21;15.70;;;10.45;;
24873;SDS011;12945;42.648;23.370;2023-05-07T06:43:47;15.00;;;10.82;;
24873;SDS011;12945;42.648;23.370;2023-05-07T06:46:12;16.45;;;10.18;;
24873;SDS011;12945;42.648;23.370;2023-05-07T06:48:38;15.70;;;11.05;;
24873;SDS011;12945;42.648;23.370;2023-05-07T06:51:03;14.45;;;10.07;;
24873;SDS011;12945;42.648;23.370;2023-05-07T06:53:28;18.10;;;9.98;;
24873;SDS011;12945;42.648;23.370;2023-05-07T06:55:55;12.65;;;9.77;;
24873;SDS011;12945;42.648;23.370;2023-05-07T06:58:20;11.10;;;8.95;;
24873;SDS011;12945;42.648;23.370;2023-05-07T07:00:46;12.45;;;8.68;;
24873;SDS011;12945;42.648;23.370;2023-05-07T07:03:11;14.32;;;8.60;;
24873;SDS011;12945;42.648;23.370;2023-05-07T07:05:36;14.07;;;8.38;;
24873;SDS011;12945;42.648;23.370;2023-05-07T07:08:02;12.35;;;9.02;;
24873;SDS011;12945;42.648;23.370;2023-05-07T07:10:27;14.65;;;9.00;;
24873;SDS011;12945;42.648;23.370;2023-05-07T07:12:52;13.35;;;8.73;;
24873;SDS011;12945;42.648;23.370;2023-05-07T07:15:19;17.40;;;8.85;;
24873;SDS011;12945;42.648;23.370;2023-05-07T07:17:45;13.88;;;9.18;;
24873;SDS011;12945;42.648;23.370;2023-05-07T07:20:10;12.98;;;9.18;;
24873;SDS011;12945;42.648;23.370;2023-05-07T07:22:36;13.95;;;8.88;;
24873;SDS011;12945;42.648;23.370;2023-05-07T07:25:01;15.23;;;9.30;;
24873;SDS011;12945;42.648;23.370;2023-05-07T07:27:26;15.38;;;8.80;;
24873;SDS011;12945;42.648;23.370;2023-05-07T07:29:52;13.20;;;9.75;;
24873;SDS011;12945;42.648;23.370;2023-05-07T07:32:17;18.38;;;9.73;;
24873;SDS011;12945;42.648;23.370;2023-05-07T07:34:42;15.82;;;9.27;;
24873;SDS011;12945;42.648;23.370;2023-05-07T07:37:08;13.43;;;8.30;;
24873;SDS011;12945;42.648;23.370;2023-05-07T07:39:33;12.77;;;7.75;;
24873;SDS011;12945;42.648;23.370;2023-05-07T07:41:59;11.77;;;8.65;;
24873;SDS011;12945;42.648;23.370;2023-05-07T07:44:24;16.33;;;9.07;;
24873;SDS011;12945;42.648;23.370;2023-05-07T07:46:49;12.95;;;7.53;;
24873;SDS011;12945;42.648;23.370;2023-05-07T07:49:17;13.18;;;7.45;;
24873;SDS011;12945;42.648;23.370;2023-05-07T07:51:42;13.75;;;8.00;;
24873;SDS011;12945;42.648;23.370;2023-05-07T07:54:07;11.48;;;8.15;;
24873;SDS011;12945;42.648;23.370;2023-05-07T07:56:33;12.95;;;8.27;;
24873;SDS011;12945;42.648;23.370;2023-05-07T07:59:01;12.00;;;8.88;;
24873;SDS011;12945;42.648;23.370;2023-05-07T08:01:29;16.15;;;9.43;;
24873;SDS011;12945;42.648;23.370;2023-05-07T08:03:54;13.45;;;9.32;;
24873;SDS011;12945;42.648;23.370;2023-05-07T08:06:20;14.18;;;9.23;;
24873;SDS011;12945;42.648;23.370;2023-05-07T08:08:46;21.73;;;10.80;;
24873;SDS011;12945;42.648;23.370;2023-05-07T08:11:11;15.98;;;9.50;;
24873;SDS011;12945;42.648;23.370;2023-05-07T08:13:37;13.57;;;8.85;;
24873;SDS011;12945;42.648;23.370;2023-05-07T08:16:03;12.95;;;8.90;;
24873;SDS011;12945;42.648;23.370;2023-05-07T08:18:28;17.65;;;11.32;;
24873;SDS011;12945;42.648;23.370;2023-05-07T08:20:54;18.60;;;9.00;;
24873;SDS011;12945;42.648;23.370;2023-05-07T08:23:19;17.77;;;9.93;;
24873;SDS011;12945;42.648;23.370;2023-05-07T08:25:44;17.90;;;8.88;;
24873;SDS011;12945;42.648;23.370;2023-05-07T08:28:10;18.25;;;9.60;;
24873;SDS011;12945;42.648;23.370;2023-05-07T08:30:35;13.38;;;8.90;;
24873;SDS011;12945;42.648;23.370;2023-05-07T08:33:01;13.55;;;8.88;;
24873;SDS011;12945;42.648;23.370;2023-05-07T08:35:26;13.23;;;8.52;;
24873;SDS011;12945;42.648;23.370;2023-05-07T08:37:52;17.00;;;8.32;;
24873;SDS011;12945;42.648;23.370;2023-05-07T08:40:17;18.73;;;8.23;;
24873;SDS011;12945;42.648;23.370;2023-05-07T08:42:42;13.90;;;8.25;;
24873;SDS011;12945;42.648;23.370;2023-05-07T08:45:09;10.65;;;7.75;;
24873;SDS011;12945;42.648;23.370;2023-05-07T08:47:44;8.65;;;6.75;;
24873;SDS011;12945;42.648;23.370;2023-05-07T08:50:11;11.85;;;6.93;;
24873;SDS011;12945;42.648;23.370;2023-05-07T08:52:36;13.38;;;8.45;;
24873;SDS011;12945;42.648;23.370;2023-05-07T08:55:02;12.88;;;7.80;;
24873;SDS011;12945;42.648;23.370;2023-05-07T08:57:28;12.48;;;7.20;;
24873;SDS011;12945;42.648;23.370;2023-05-07T08:59:53;12.50;;;6.13;;
24873;SDS011;12945;42.648;23.370;2023-05-07T09:02:19;9.38;;;5.10;;
24873;SDS011;12945;42.648;23.370;2023-05-07T09:04:44;8.60;;;5.03;;
24873;SDS011;12945;42.648;23.370;2023-05-07T09:07:09;11.23;;;4.00;;
24873;SDS011;12945;42.648;23.370;2023-05-07T09:09:34;11.65;;;5.07;;
24873;SDS011;12945;42.648;23.370;2023-05-07T09:12:00;7.07;;;4.43;;
24873;SDS011;12945;42.648;23.370;2023-05-07T09:14:25;6.03;;;4.78;;
24873;SDS011;12945;42.648;23.370;2023-05-07T09:16:53;18.33;;;5.40;;
24873;SDS011;12945;42.648;23.370;2023-05-07T09:19:25;8.55;;;4.70;;
24873;SDS011;12945;42.648;23.370;2023-05-07T09:22:00;9.30;;;4.95;;
24873;SDS011;12945;42.648;23.370;2023-05-07T09:24:26;7.63;;;5.38;;
24873;SDS011;12945;42.648;23.370;2023-05-07T09:26:51;10.43;;;5.60;;
24873;SDS011;12945;42.648;23.370;2023-05-07T09:29:16;15.38;;;6.00;;
24873;SDS011;12945;42.648;23.370;2023-05-07T09:31:42;9.75;;;5.18;;
24873;SDS011;12945;42.648;23.370;2023-05-07T09:34:08;11.02;;;5.80;;
24873;SDS011;12945;42.648;23.370;2023-05-07T09:36:33;26.58;;;6.82;;
24873;SDS011;12945;42.648;23.370;2023-05-07T09:39:01;8.32;;;6.00;;
24873;SDS011;12945;42.648;23.370;2023-05-07T09:41:27;7.80;;;5.10;;
24873;SDS011;12945;42.648;23.370;2023-05-07T09:43:55;6.90;;;4.72;;
24873;SDS011;12945;42.648;23.370;2023-05-07T09:46:20;9.27;;;5.30;;
24873;SDS011;12945;42.648;23.370;2023-05-07T09:48:50;15.52;;;5.40;;
24873;SDS011;12945;42.648;23.370;2023-05-07T09:51:30;10.00;;;5.43;;
24873;SDS011;12945;42.648;23.370;2023-05-07T09:53:58;7.18;;;5.05;;
24873;SDS011;12945;42.648;23.370;2023-05-07T09:56:29;9.30;;;5.00;;
24873;SDS011;12945;42.648;23.370;2023-05-07T09:58:56;6.70;;;4.68;;
24873;SDS011;12945;42.648;23.370;2023-05-07T10:01:22;7.95;;;4.65;;
24873;SDS011;12945;42.648;23.370;2023-05-07T10:03:49;7.95;;;4.80;;
24873;SDS011;12945;42.648;23.370;2023-05-07T10:06:15;8.50;;;4.50;;
24873;SDS011;12945;42.648;23.370;2023-05-07T10:08:40;11.38;;;5.20;;
24873;SDS011;12945;42.648;23.370;2023-05-07T10:11:07;9.70;;;4.72;;
24873;SDS011;12945;42.648;23.370;2023-05-07T10:13:33;12.70;;;4.68;;
24873;SDS011;12945;42.648;23.370;2023-05-07T10:16:05;8.75;;;4.32;;
24873;SDS011;12945;42.648;23.370;2023-05-07T10:18:31;5.97;;;4.35;;
24873;SDS011;12945;42.648;23.370;2023-05-07T10:20:59;9.52;;;4.43;;
24873;SDS011;12945;42.648;23.370;2023-05-07T10:23:26;8.70;;;4.35;;
24873;SDS011;12945;42.648;23.370;2023-05-07T10:25:52;6.10;;;3.53;;
24873;SDS011;12945;42.648;23.370;2023-05-07T10:28:19;5.63;;;3.58;;
24873;SDS011;12945;42.648;23.370;2023-05-07T10:33:28;6.45;;;3.88;;
24873;SDS011;12945;42.648;23.370;2023-05-07T10:36:00;12.48;;;4.38;;
24873;SDS011;12945;42.648;23.370;2023-05-07T10:38:26;10.70;;;4.72;;
24873;SDS011;12945;42.648;23.370;2023-05-07T10:40:52;5.90;;;4.20;;
24873;SDS011;12945;42.648;23.370;2023-05-07T10:43:17;8.15;;;4.75;;
24873;SDS011;12945;42.648;23.370;2023-05-07T10:45:43;13.25;;;4.82;;
24873;SDS011;12945;42.648;23.370;2023-05-07T10:48:15;9.90;;;4.50;;
24873;SDS011;12945;42.648;23.370;2023-05-07T10:50:43;8.90;;;4.25;;
24873;SDS011;12945;42.648;23.370;2023-05-07T10:55:47;5.28;;;4.20;;
24873;SDS011;12945;42.648;23.370;2023-05-07T10:58:26;5.07;;;4.07;;
24873;SDS011;12945;42.648;23.370;2023-05-07T11:03:23;5.25;;;4.00;;
24873;SDS011;12945;42.648;23.370;2023-05-07T11:06:08;4.78;;;3.80;;
24873;SDS011;12945;42.648;23.370;2023-05-07T11:11:16;7.20;;;4.35;;
24873;SDS011;12945;42.648;23.370;2023-05-07T11:13:45;5.57;;;4.07;;
24873;SDS011;12945;42.648;23.370;2023-05-07T11:18:53;7.53;;;4.05;;
24873;SDS011;12945;42.648;23.370;2023-05-07T11:21:32;7.93;;;4.00;;
24873;SDS011;12945;42.648;23.370;2023-05-07T11:23:58;7.20;;;4.10;;
24873;SDS011;12945;42.648;23.370;2023-05-07T11:26:23;6.35;;;4.20;;
24873;SDS011;12945;42.648;23.370;2023-05-07T11:28:50;7.03;;;3.90;;
24873;SDS011;12945;42.648;23.370;2023-05-07T11:31:17;6.88;;;3.70;;
24873;SDS011;12945;42.648;23.370;2023-05-07T11:33:45;6.82;;;3.83;;
24873;SDS011;12945;42.648;23.370;2023-05-07T11:36:10;10.43;;;4.22;;
24873;SDS011;12945;42.648;23.370;2023-05-07T11:38:36;5.78;;;4.00;;
24873;SDS011;12945;42.648;23.370;2023-05-07T11:41:02;9.48;;;4.20;;
24873;SDS011;12945;42.648;23.370;2023-05-07T11:43:29;6.43;;;3.83;;
24873;SDS011;12945;42.648;23.370;2023-05-07T11:45:54;4.72;;;3.38;;
24873;SDS011;12945;42.648;23.370;2023-05-07T11:48:20;4.70;;;3.55;;
24873;SDS011;12945;42.648;23.370;2023-05-07T11:50:53;7.35;;;4.00;;
24873;SDS011;12945;42.648;23.370;2023-05-07T11:53:18;8.65;;;3.70;;
24873;SDS011;12945;42.648;23.370;2023-05-07T11:55:44;10.48;;;4.13;;
24873;SDS011;12945;42.648;23.370;2023-05-07T11:58:11;6.22;;;3.95;;
24873;SDS011;12945;42.648;23.370;2023-05-07T12:00:37;5.47;;;3.92;;
24873;SDS011;12945;42.648;23.370;2023-05-07T12:03:05;5.53;;;3.60;;
24873;SDS011;12945;42.648;23.370;2023-05-07T12:05:30;8.52;;;3.80;;
24873;SDS011;12945;42.648;23.370;2023-05-07T12:07:59;6.03;;;3.78;;
24873;SDS011;12945;42.648;23.370;2023-05-07T12:10:25;7.50;;;3.63;;
24873;SDS011;12945;42.648;23.370;2023-05-07T12:12:50;5.53;;;3.53;;
24873;SDS011;12945;42.648;23.370;2023-05-07T12:15:16;9.13;;;3.88;;
24873;SDS011;12945;42.648;23.370;2023-05-07T12:17:42;5.70;;;4.03;;
24873;SDS011;12945;42.648;23.370;2023-05-07T12:20:07;5.22;;;3.63;;
24873;SDS011;12945;42.648;23.370;2023-05-07T12:22:33;6.93;;;3.63;;
24873;SDS011;12945;42.648;23.370;2023-05-07T12:24:58;5.50;;;3.78;;
24873;SDS011;12945;42.648;23.370;2023-05-07T12:27:25;4.57;;;3.50;;
24873;SDS011;12945;42.648;23.370;2023-05-07T12:29:50;10.43;;;4.28;;
24873;SDS011;12945;42.648;23.370;2023-05-07T12:32:19;7.93;;;4.00;;
24873;SDS011;12945;42.648;23.370;2023-05-07T12:34:45;7.22;;;3.90;;
24873;SDS011;12945;42.648;23.370;2023-05-07T12:37:10;5.80;;;3.70;;
24873;SDS011;12945;42.648;23.370;2023-05-07T12:39:36;5.30;;;3.53;;
24873;SDS011;12945;42.648;23.370;2023-05-07T12:42:01;3.67;;;3.10;;
24873;SDS011;12945;42.648;23.370;2023-05-07T12:44:30;7.50;;;3.78;;
24873;SDS011;12945;42.648;23.370;2023-05-07T12:46:56;5.97;;;3.97;;
24873;SDS011;12945;42.648;23.370;2023-05-07T12:49:21;5.80;;;3.70;;
24873;SDS011;12945;42.648;23.370;2023-05-07T12:51:47;5.40;;;3.30;;
24873;SDS011;12945;42.648;23.370;2023-05-07T12:54:12;8.13;;;3.88;;
24873;SDS011;12945;42.648;23.370;2023-05-07T12:56:37;8.77;;;3.53;;
24873;SDS011;12945;42.648;23.370;2023-05-07T12:59:03;7.10;;;4.13;;
24873;SDS011;12945;42.648;23.370;2023-05-07T13:01:33;7.70;;;3.90;;
24873;SDS011;12945;42.648;23.370;2023-05-07T13:06:24;5.37;;;3.63;;
24873;SDS011;12945;42.648;23.370;2023-05-07T13:08:49;4.57;;;3.20;;
24873;SDS011;12945;42.648;23.370;2023-05-07T13:11:15;6.45;;;3.10;;
24873;SDS011;12945;42.648;23.370;2023-05-07T13:13:40;6.15;;;3.38;;
24873;SDS011;12945;42.648;23.370;2023-05-07T13:16:06;5.53;;;2.78;;
24873;SDS011;12945;42.648;23.370;2023-05-07T13:18:32;8.02;;;3.05;;
24873;SDS011;12945;42.648;23.370;2023-05-07T13:20:58;5.82;;;2.65;;
24873;SDS011;12945;42.648;23.370;2023-05-07T13:23:24;3.97;;;2.53;;
24873;SDS011;12945;42.648;23.370;2023-05-07T13:25:50;4.72;;;2.97;;
24873;SDS011;12945;42.648;23.370;2023-05-07T13:28:15;6.10;;;3.35;;
24873;SDS011;12945;42.648;23.370;2023-05-07T13:30:41;5.70;;;3.38;;
24873;SDS011;12945;42.648;23.370;2023-05-07T13:33:06;8.80;;;3.15;;
24873;SDS011;12945;42.648;23.370;2023-05-07T13:35:32;3.70;;;2.50;;
24873;SDS011;12945;42.648;23.370;2023-05-07T13:37:57;5.43;;;2.75;;
24873;SDS011;12945;42.648;23.370;2023-05-07T13:40:22;7.28;;;2.72;;
24873;SDS011;12945;42.648;23.370;2023-05-07T13:42:48;6.10;;;2.83;;
24873;SDS011;12945;42.648;23.370;2023-05-07T13:45:13;3.88;;;2.95;;
24873;SDS011;12945;42.648;23.370;2023-05-07T13:47:42;5.43;;;2.78;;
24873;SDS011;12945;42.648;23.370;2023-05-07T13:50:08;5.50;;;2.55;;
24873;SDS011;12945;42.648;23.370;2023-05-07T13:52:33;4.82;;;3.03;;
24873;SDS011;12945;42.648;23.370;2023-05-07T13:54:59;4.00;;;2.75;;
24873;SDS011;12945;42.648;23.370;2023-05-07T13:57:24;5.38;;;2.80;;
24873;SDS011;12945;42.648;23.370;2023-05-07T13:59:49;7.55;;;3.10;;
24873;SDS011;12945;42.648;23.370;2023-05-07T14:02:15;6.40;;;2.50;;
24873;SDS011;12945;42.648;23.370;2023-05-07T14:04:40;3.20;;;2.58;;
24873;SDS011;12945;42.648;23.370;2023-05-07T14:07:05;5.15;;;2.58;;
24873;SDS011;12945;42.648;23.370;2023-05-07T14:09:31;4.90;;;2.90;;
24873;SDS011;12945;42.648;23.370;2023-05-07T14:11:56;7.80;;;3.95;;
24873;SDS011;12945;42.648;23.370;2023-05-07T14:14:21;8.30;;;3.65;;
24873;SDS011;12945;42.648;23.370;2023-05-07T14:16:47;5.35;;;2.88;;
24873;SDS011;12945;42.648;23.370;2023-05-07T14:19:12;6.78;;;3.67;;
24873;SDS011;12945;42.648;23.370;2023-05-07T14:21:37;8.60;;;6.07;;
24873;SDS011;12945;42.648;23.370;2023-05-07T14:24:03;9.98;;;3.35;;
24873;SDS011;12945;42.648;23.370;2023-05-07T14:26:28;4.30;;;3.17;;
24873;SDS011;12945;42.648;23.370;2023-05-07T14:28:54;7.80;;;4.57;;